sensor_id;sensor_type;location;lat;lon;timestamp;P1;durP1;ratioP1;P2;durP2;ratioP2
59788;SDS011;47353;51.614;5.530;2022-09-30T00:00:14;26.02;;;19.98;;
59788;SDS011;47353;51.614;5.530;2022-09-30T00:02:41;30.25;;;22.98;;
59788;SDS011;47353;51.614;5.530;2022-09-30T00:05:07;34.58;;;23.00;;
59788;SDS011;47353;51.614;5.530;2022-09-30T00:07:32;28.10;;;22.08;;
59788;SDS011;47353;51.614;5.530;2022-09-30T00:09:57;30.10;;;21.67;;
59788;SDS011;47353;51.614;5.530;2022-09-30T00:12:23;31.25;;;22.70;;
59788;SDS011;47353;51.614;5.530;2022-09-30T00:14:48;33.38;;;24.35;;
59788;SDS011;47353;51.614;5.530;2022-09-30T00:17:14;33.03;;;24.92;;
59788;SDS011;47353;51.614;5.530;2022-09-30T00:19:39;35.92;;;25.30;;
59788;SDS011;47353;51.614;5.530;2022-09-30T00:22:04;32.55;;;24.67;;
59788;SDS011;47353;51.614;5.530;2022-09-30T00:24:30;32.40;;;24.67;;
59788;SDS011;47353;51.614;5.530;2022-09-30T00:26:55;32.08;;;24.77;;
59788;SDS011;47353;51.614;5.530;2022-09-30T00:29:21;33.92;;;24.27;;
59788;SDS011;47353;51.614;5.530;2022-09-30T00:31:46;33.95;;;25.08;;
59788;SDS011;47353;51.614;5.530;2022-09-30T00:34:11;30.65;;;23.75;;
59788;SDS011;47353;51.614;5.530;2022-09-30T00:36:47;35.05;;;24.30;;
59788;SDS011;47353;51.614;5.530;2022-09-30T00:41:41;31.00;;;22.90;;
59788;SDS011;47353;51.614;5.530;2022-09-30T00:47:53;29.65;;;21.05;;
59788;SDS011;47353;51.614;5.530;2022-09-30T00:52:39;29.33;;;20.52;;
59788;SDS011;47353;51.614;5.530;2022-09-30T00:55:07;28.75;;;21.67;;
59788;SDS011;47353;51.614;5.530;2022-09-30T00:57:40;28.75;;;21.50;;
59788;SDS011;47353;51.614;5.530;2022-09-30T01:00:06;29.95;;;21.42;;
59788;SDS011;47353;51.614;5.530;2022-09-30T01:02:32;30.38;;;22.58;;
59788;SDS011;47353;51.614;5.530;2022-09-30T01:04:58;30.77;;;21.15;;
59788;SDS011;47353;51.614;5.530;2022-09-30T01:07:23;29.33;;;21.25;;
59788;SDS011;47353;51.614;5.530;2022-09-30T01:09:48;29.20;;;21.17;;
59788;SDS011;47353;51.614;5.530;2022-09-30T01:12:15;25.25;;;19.92;;
59788;SDS011;47353;51.614;5.530;2022-09-30T01:14:45;26.05;;;20.15;;
59788;SDS011;47353;51.614;5.530;2022-09-30T01:25:22;25.33;;;18.90;;
59788;SDS011;47353;51.614;5.530;2022-09-30T01:33:44;28.38;;;19.63;;
59788;SDS011;47353;51.614;5.530;2022-09-30T01:36:43;24.23;;;17.85;;
59788;SDS011;47353;51.614;5.530;2022-09-30T01:42:23;24.95;;;18.05;;
59788;SDS011;47353;51.614;5.530;2022-09-30T01:45:48;21.40;;;16.42;;
59788;SDS011;47353;51.614;5.530;2022-09-30T01:48:25;22.40;;;16.35;;
59788;SDS011;47353;51.614;5.530;2022-09-30T01:51:02;23.45;;;16.83;;
59788;SDS011;47353;51.614;5.530;2022-09-30T01:56:15;20.10;;;16.17;;
59788;SDS011;47353;51.614;5.530;2022-09-30T02:01:53;21.42;;;16.00;;
59788;SDS011;47353;51.614;5.530;2022-09-30T02:04:23;20.60;;;15.73;;
59788;SDS011;47353;51.614;5.530;2022-09-30T02:07:11;33.35;;;16.23;;
59788;SDS011;47353;51.614;5.530;2022-09-30T02:09:48;19.80;;;16.00;;
59788;SDS011;47353;51.614;5.530;2022-09-30T02:12:19;21.73;;;16.75;;
59788;SDS011;47353;51.614;5.530;2022-09-30T02:14:51;22.98;;;16.65;;
59788;SDS011;47353;51.614;5.530;2022-09-30T02:17:24;20.58;;;15.93;;
59788;SDS011;47353;51.614;5.530;2022-09-30T02:20:13;20.35;;;16.08;;
59788;SDS011;47353;51.614;5.530;2022-09-30T02:22:47;23.23;;;15.82;;
59788;SDS011;47353;51.614;5.530;2022-09-30T02:25:25;23.70;;;17.20;;
59788;SDS011;47353;51.614;5.530;2022-09-30T02:27:56;24.35;;;16.75;;
59788;SDS011;47353;51.614;5.530;2022-09-30T02:30:25;24.73;;;17.92;;
59788;SDS011;47353;51.614;5.530;2022-09-30T02:32:54;21.42;;;16.70;;
59788;SDS011;47353;51.614;5.530;2022-09-30T02:35:34;23.08;;;17.52;;
59788;SDS011;47353;51.614;5.530;2022-09-30T02:38:02;23.02;;;17.15;;
59788;SDS011;47353;51.614;5.530;2022-09-30T02:40:40;22.95;;;17.33;;
59788;SDS011;47353;51.614;5.530;2022-09-30T02:43:07;23.85;;;17.52;;
59788;SDS011;47353;51.614;5.530;2022-09-30T02:48:58;22.75;;;17.38;;
59788;SDS011;47353;51.614;5.530;2022-09-30T02:51:36;21.67;;;17.17;;
59788;SDS011;47353;51.614;5.530;2022-09-30T02:54:18;25.83;;;17.50;;
59788;SDS011;47353;51.614;5.530;2022-09-30T03:00:02;24.38;;;18.33;;
59788;SDS011;47353;51.614;5.530;2022-09-30T03:02:29;27.42;;;18.20;;
59788;SDS011;47353;51.614;5.530;2022-09-30T03:04:54;29.10;;;20.60;;
59788;SDS011;47353;51.614;5.530;2022-09-30T03:07:19;24.08;;;18.50;;
59788;SDS011;47353;51.614;5.530;2022-09-30T03:09:45;26.98;;;19.60;;
59788;SDS011;47353;51.614;5.530;2022-09-30T03:31:41;29.65;;;21.05;;
59788;SDS011;47353;51.614;5.530;2022-09-30T03:34:29;29.98;;;20.65;;
59788;SDS011;47353;51.614;5.530;2022-09-30T03:37:19;30.65;;;22.15;;
59788;SDS011;47353;51.614;5.530;2022-09-30T03:40:14;28.58;;;21.73;;
59788;SDS011;47353;51.614;5.530;2022-09-30T03:42:53;28.67;;;22.08;;
59788;SDS011;47353;51.614;5.530;2022-09-30T03:45:26;30.27;;;22.95;;
59788;SDS011;47353;51.614;5.530;2022-09-30T03:47:54;35.83;;;23.08;;
59788;SDS011;47353;51.614;5.530;2022-09-30T03:50:23;32.13;;;23.25;;
59788;SDS011;47353;51.614;5.530;2022-09-30T03:52:51;35.33;;;24.90;;
59788;SDS011;47353;51.614;5.530;2022-09-30T03:55:17;37.50;;;24.40;;
59788;SDS011;47353;51.614;5.530;2022-09-30T03:57:43;35.38;;;24.42;;
59788;SDS011;47353;51.614;5.530;2022-09-30T04:00:10;32.50;;;23.27;;
59788;SDS011;47353;51.614;5.530;2022-09-30T04:02:37;34.42;;;24.17;;
59788;SDS011;47353;51.614;5.530;2022-09-30T04:05:03;32.83;;;24.63;;
59788;SDS011;47353;51.614;5.530;2022-09-30T04:07:29;35.08;;;24.17;;
59788;SDS011;47353;51.614;5.530;2022-09-30T04:09:55;34.13;;;23.75;;
59788;SDS011;47353;51.614;5.530;2022-09-30T04:12:20;33.08;;;23.83;;
59788;SDS011;47353;51.614;5.530;2022-09-30T04:14:46;33.08;;;23.75;;
59788;SDS011;47353;51.614;5.530;2022-09-30T04:17:11;34.03;;;24.15;;
59788;SDS011;47353;51.614;5.530;2022-09-30T04:19:36;34.67;;;24.45;;
59788;SDS011;47353;51.614;5.530;2022-09-30T04:22:04;35.88;;;25.17;;
59788;SDS011;47353;51.614;5.530;2022-09-30T04:24:30;40.65;;;26.65;;
59788;SDS011;47353;51.614;5.530;2022-09-30T04:26:56;38.20;;;25.83;;
59788;SDS011;47353;51.614;5.530;2022-09-30T04:29:22;39.45;;;25.05;;
59788;SDS011;47353;51.614;5.530;2022-09-30T04:31:47;45.70;;;28.02;;
59788;SDS011;47353;51.614;5.530;2022-09-30T04:34:12;47.25;;;30.02;;
59788;SDS011;47353;51.614;5.530;2022-09-30T04:36:38;44.78;;;27.63;;
59788;SDS011;47353;51.614;5.530;2022-09-30T04:39:03;45.78;;;29.13;;
59788;SDS011;47353;51.614;5.530;2022-09-30T04:41:29;42.80;;;28.60;;
59788;SDS011;47353;51.614;5.530;2022-09-30T04:43:56;44.83;;;29.33;;
59788;SDS011;47353;51.614;5.530;2022-09-30T04:46:21;48.08;;;29.88;;
59788;SDS011;47353;51.614;5.530;2022-09-30T04:48:47;44.35;;;28.27;;
59788;SDS011;47353;51.614;5.530;2022-09-30T04:51:13;49.75;;;29.10;;
59788;SDS011;47353;51.614;5.530;2022-09-30T04:53:40;41.38;;;27.58;;
59788;SDS011;47353;51.614;5.530;2022-09-30T04:56:06;40.85;;;27.00;;
59788;SDS011;47353;51.614;5.530;2022-09-30T04:58:32;40.83;;;26.63;;
59788;SDS011;47353;51.614;5.530;2022-09-30T05:01:01;36.63;;;25.75;;
59788;SDS011;47353;51.614;5.530;2022-09-30T05:03:31;44.53;;;27.15;;
59788;SDS011;47353;51.614;5.530;2022-09-30T05:05:57;41.72;;;26.50;;
59788;SDS011;47353;51.614;5.530;2022-09-30T05:08:22;39.40;;;25.40;;
59788;SDS011;47353;51.614;5.530;2022-09-30T05:10:52;36.15;;;25.30;;
59788;SDS011;47353;51.614;5.530;2022-09-30T05:13:19;38.80;;;26.60;;
59788;SDS011;47353;51.614;5.530;2022-09-30T05:15:46;40.17;;;26.98;;
59788;SDS011;47353;51.614;5.530;2022-09-30T05:18:13;40.25;;;26.55;;
59788;SDS011;47353;51.614;5.530;2022-09-30T05:20:38;41.78;;;26.38;;
59788;SDS011;47353;51.614;5.530;2022-09-30T05:23:04;38.88;;;26.33;;
59788;SDS011;47353;51.614;5.530;2022-09-30T05:25:30;39.80;;;26.27;;
59788;SDS011;47353;51.614;5.530;2022-09-30T05:27:55;45.72;;;26.90;;
59788;SDS011;47353;51.614;5.530;2022-09-30T05:30:21;40.15;;;26.00;;
59788;SDS011;47353;51.614;5.530;2022-09-30T05:32:46;39.88;;;26.13;;
59788;SDS011;47353;51.614;5.530;2022-09-30T05:35:11;42.85;;;26.90;;
59788;SDS011;47353;51.614;5.530;2022-09-30T05:37:37;44.72;;;27.73;;
59788;SDS011;47353;51.614;5.530;2022-09-30T05:40:03;45.53;;;28.23;;
59788;SDS011;47353;51.614;5.530;2022-09-30T05:42:29;45.70;;;27.08;;
59788;SDS011;47353;51.614;5.530;2022-09-30T05:44:56;42.78;;;27.10;;
59788;SDS011;47353;51.614;5.530;2022-09-30T05:47:21;41.25;;;27.42;;
59788;SDS011;47353;51.614;5.530;2022-09-30T05:49:48;45.67;;;27.30;;
59788;SDS011;47353;51.614;5.530;2022-09-30T05:52:13;42.10;;;27.35;;
59788;SDS011;47353;51.614;5.530;2022-09-30T05:54:38;41.40;;;27.13;;
59788;SDS011;47353;51.614;5.530;2022-09-30T05:57:04;41.35;;;26.50;;
59788;SDS011;47353;51.614;5.530;2022-09-30T05:59:31;43.50;;;27.67;;
59788;SDS011;47353;51.614;5.530;2022-09-30T06:01:57;44.65;;;28.65;;
59788;SDS011;47353;51.614;5.530;2022-09-30T06:04:22;45.22;;;28.30;;
59788;SDS011;47353;51.614;5.530;2022-09-30T06:06:48;43.15;;;28.35;;
59788;SDS011;47353;51.614;5.530;2022-09-30T06:09:13;48.13;;;27.75;;
59788;SDS011;47353;51.614;5.530;2022-09-30T06:11:39;43.00;;;27.85;;
59788;SDS011;47353;51.614;5.530;2022-09-30T06:14:06;46.05;;;28.52;;
59788;SDS011;47353;51.614;5.530;2022-09-30T06:16:32;41.13;;;26.92;;
59788;SDS011;47353;51.614;5.530;2022-09-30T06:18:57;44.83;;;27.73;;
59788;SDS011;47353;51.614;5.530;2022-09-30T06:21:23;42.22;;;26.95;;
59788;SDS011;47353;51.614;5.530;2022-09-30T06:23:49;44.35;;;26.17;;
59788;SDS011;47353;51.614;5.530;2022-09-30T06:26:14;45.75;;;26.50;;
59788;SDS011;47353;51.614;5.530;2022-09-30T06:28:40;38.97;;;26.92;;
59788;SDS011;47353;51.614;5.530;2022-09-30T06:31:07;38.35;;;25.55;;
59788;SDS011;47353;51.614;5.530;2022-09-30T06:33:32;35.65;;;25.13;;
59788;SDS011;47353;51.614;5.530;2022-09-30T06:35:58;37.28;;;25.55;;
59788;SDS011;47353;51.614;5.530;2022-09-30T06:38:28;35.67;;;25.38;;
59788;SDS011;47353;51.614;5.530;2022-09-30T06:40:54;42.60;;;26.50;;
59788;SDS011;47353;51.614;5.530;2022-09-30T06:43:20;40.35;;;27.42;;
59788;SDS011;47353;51.614;5.530;2022-09-30T06:45:46;40.60;;;28.27;;
59788;SDS011;47353;51.614;5.530;2022-09-30T06:48:13;40.08;;;27.95;;
59788;SDS011;47353;51.614;5.530;2022-09-30T06:50:39;42.85;;;29.10;;
59788;SDS011;47353;51.614;5.530;2022-09-30T06:53:06;40.80;;;28.35;;
59788;SDS011;47353;51.614;5.530;2022-09-30T06:55:33;42.55;;;29.05;;
59788;SDS011;47353;51.614;5.530;2022-09-30T06:58:02;40.92;;;26.98;;
59788;SDS011;47353;51.614;5.530;2022-09-30T07:00:29;44.60;;;29.80;;
59788;SDS011;47353;51.614;5.530;2022-09-30T07:02:54;45.47;;;29.80;;
59788;SDS011;47353;51.614;5.530;2022-09-30T07:05:23;42.03;;;29.55;;
59788;SDS011;47353;51.614;5.530;2022-09-30T07:07:51;42.47;;;29.20;;
59788;SDS011;47353;51.614;5.530;2022-09-30T07:10:18;44.30;;;30.05;;
59788;SDS011;47353;51.614;5.530;2022-09-30T07:12:47;45.80;;;30.10;;
59788;SDS011;47353;51.614;5.530;2022-09-30T07:15:14;42.55;;;29.98;;
59788;SDS011;47353;51.614;5.530;2022-09-30T07:17:40;46.05;;;30.38;;
59788;SDS011;47353;51.614;5.530;2022-09-30T07:20:06;43.63;;;29.42;;
59788;SDS011;47353;51.614;5.530;2022-09-30T07:22:32;41.92;;;30.15;;
59788;SDS011;47353;51.614;5.530;2022-09-30T07:24:59;39.92;;;28.85;;
59788;SDS011;47353;51.614;5.530;2022-09-30T07:27:28;42.22;;;29.30;;
59788;SDS011;47353;51.614;5.530;2022-09-30T07:29:56;43.45;;;29.98;;
59788;SDS011;47353;51.614;5.530;2022-09-30T07:32:21;48.20;;;32.13;;
59788;SDS011;47353;51.614;5.530;2022-09-30T07:34:47;43.80;;;30.95;;
59788;SDS011;47353;51.614;5.530;2022-09-30T07:37:14;44.05;;;29.88;;
59788;SDS011;47353;51.614;5.530;2022-09-30T07:39:41;41.85;;;30.65;;
59788;SDS011;47353;51.614;5.530;2022-09-30T07:42:12;44.00;;;29.65;;
59788;SDS011;47353;51.614;5.530;2022-09-30T07:44:39;39.78;;;30.50;;
59788;SDS011;47353;51.614;5.530;2022-09-30T07:47:07;43.90;;;31.95;;
59788;SDS011;47353;51.614;5.530;2022-09-30T07:49:34;43.03;;;32.83;;
59788;SDS011;47353;51.614;5.530;2022-09-30T07:52:00;40.90;;;30.33;;
59788;SDS011;47353;51.614;5.530;2022-09-30T07:54:27;38.22;;;28.35;;
59788;SDS011;47353;51.614;5.530;2022-09-30T07:56:54;37.90;;;28.27;;
59788;SDS011;47353;51.614;5.530;2022-09-30T07:59:20;32.00;;;25.80;;
59788;SDS011;47353;51.614;5.530;2022-09-30T08:01:46;34.95;;;25.02;;
59788;SDS011;47353;51.614;5.530;2022-09-30T08:04:12;27.70;;;22.48;;
59788;SDS011;47353;51.614;5.530;2022-09-30T08:06:40;26.10;;;22.73;;
59788;SDS011;47353;51.614;5.530;2022-09-30T08:09:09;23.85;;;21.23;;
59788;SDS011;47353;51.614;5.530;2022-09-30T08:11:35;22.15;;;19.73;;
59788;SDS011;47353;51.614;5.530;2022-09-30T08:14:01;23.02;;;19.73;;
59788;SDS011;47353;51.614;5.530;2022-09-30T08:16:27;23.90;;;18.25;;
59788;SDS011;47353;51.614;5.530;2022-09-30T08:18:53;22.17;;;18.60;;
59788;SDS011;47353;51.614;5.530;2022-09-30T08:21:26;25.92;;;18.45;;
59788;SDS011;47353;51.614;5.530;2022-09-30T08:23:53;20.40;;;17.90;;
59788;SDS011;47353;51.614;5.530;2022-09-30T08:26:19;21.90;;;17.00;;
59788;SDS011;47353;51.614;5.530;2022-09-30T08:28:45;19.83;;;17.73;;
59788;SDS011;47353;51.614;5.530;2022-09-30T08:31:14;17.77;;;15.95;;
59788;SDS011;47353;51.614;5.530;2022-09-30T08:33:42;18.05;;;16.15;;
59788;SDS011;47353;51.614;5.530;2022-09-30T08:36:08;18.30;;;16.05;;
59788;SDS011;47353;51.614;5.530;2022-09-30T08:38:45;17.05;;;15.30;;
59788;SDS011;47353;51.614;5.530;2022-09-30T08:51:51;16.75;;;12.70;;
59788;SDS011;47353;51.614;5.530;2022-09-30T08:54:22;15.75;;;13.52;;
59788;SDS011;47353;51.614;5.530;2022-09-30T08:56:50;16.27;;;13.45;;
59788;SDS011;47353;51.614;5.530;2022-09-30T09:02:11;17.85;;;13.13;;
59788;SDS011;47353;51.614;5.530;2022-09-30T09:04:45;14.82;;;13.25;;
59788;SDS011;47353;51.614;5.530;2022-09-30T09:23:46;16.98;;;14.15;;
59788;SDS011;47353;51.614;5.530;2022-09-30T09:26:14;17.08;;;14.10;;
59788;SDS011;47353;51.614;5.530;2022-09-30T09:28:58;15.02;;;13.50;;
59788;SDS011;47353;51.614;5.530;2022-09-30T09:31:44;14.32;;;12.43;;
59788;SDS011;47353;51.614;5.530;2022-09-30T09:34:12;17.00;;;12.80;;
59788;SDS011;47353;51.614;5.530;2022-09-30T09:36:57;14.98;;;12.50;;
59788;SDS011;47353;51.614;5.530;2022-09-30T09:42:26;15.23;;;12.13;;
59788;SDS011;47353;51.614;5.530;2022-09-30T09:47:51;13.35;;;10.32;;
59788;SDS011;47353;51.614;5.530;2022-09-30T09:50:22;15.57;;;10.80;;
59788;SDS011;47353;51.614;5.530;2022-09-30T09:56:16;10.73;;;9.63;;
59788;SDS011;47353;51.614;5.530;2022-09-30T10:01:32;10.20;;;9.10;;
59788;SDS011;47353;51.614;5.530;2022-09-30T10:04:18;10.43;;;9.20;;
59788;SDS011;47353;51.614;5.530;2022-09-30T10:06:51;10.25;;;8.25;;
59788;SDS011;47353;51.614;5.530;2022-09-30T10:14:29;10.57;;;8.40;;
59788;SDS011;47353;51.614;5.530;2022-09-30T10:16:56;11.93;;;8.68;;
59788;SDS011;47353;51.614;5.530;2022-09-30T10:19:25;9.00;;;8.10;;
59788;SDS011;47353;51.614;5.530;2022-09-30T10:24:33;10.68;;;8.70;;
59788;SDS011;47353;51.614;5.530;2022-09-30T10:27:01;11.43;;;9.48;;
59788;SDS011;47353;51.614;5.530;2022-09-30T10:29:30;10.43;;;9.25;;
59788;SDS011;47353;51.614;5.530;2022-09-30T10:31:58;9.63;;;8.73;;
59788;SDS011;47353;51.614;5.530;2022-09-30T10:37:00;9.48;;;8.57;;
59788;SDS011;47353;51.614;5.530;2022-09-30T10:39:32;9.07;;;7.57;;
59788;SDS011;47353;51.614;5.530;2022-09-30T10:44:29;10.35;;;8.02;;
59788;SDS011;47353;51.614;5.530;2022-09-30T10:47:00;8.93;;;7.13;;
59788;SDS011;47353;51.614;5.530;2022-09-30T10:49:29;8.93;;;7.32;;
59788;SDS011;47353;51.614;5.530;2022-09-30T10:52:00;8.05;;;6.90;;
59788;SDS011;47353;51.614;5.530;2022-09-30T10:57:17;8.27;;;6.95;;
59788;SDS011;47353;51.614;5.530;2022-09-30T10:59:51;7.90;;;6.50;;
59788;SDS011;47353;51.614;5.530;2022-09-30T11:05:16;6.47;;;5.88;;
59788;SDS011;47353;51.614;5.530;2022-09-30T11:13:35;9.05;;;4.95;;
59788;SDS011;47353;51.614;5.530;2022-09-30T11:21:40;5.53;;;4.15;;
59788;SDS011;47353;51.614;5.530;2022-09-30T11:29:43;6.70;;;4.63;;
59788;SDS011;47353;51.614;5.530;2022-09-30T11:48:34;7.32;;;2.70;;
59788;SDS011;47353;51.614;5.530;2022-09-30T11:59:49;3.90;;;2.60;;
59788;SDS011;47353;51.614;5.530;2022-09-30T12:04:50;3.83;;;2.92;;
59788;SDS011;47353;51.614;5.530;2022-09-30T12:07:45;4.83;;;2.90;;
59788;SDS011;47353;51.614;5.530;2022-09-30T12:12:46;3.17;;;2.42;;
59788;SDS011;47353;51.614;5.530;2022-09-30T12:15:15;4.07;;;2.63;;
59788;SDS011;47353;51.614;5.530;2022-09-30T12:17:45;3.38;;;2.72;;
59788;SDS011;47353;51.614;5.530;2022-09-30T12:20:19;4.68;;;2.70;;
59788;SDS011;47353;51.614;5.530;2022-09-30T12:22:51;2.50;;;2.30;;
59788;SDS011;47353;51.614;5.530;2022-09-30T12:25:35;4.33;;;2.53;;
59788;SDS011;47353;51.614;5.530;2022-09-30T12:31:32;3.05;;;2.22;;
59788;SDS011;47353;51.614;5.530;2022-09-30T12:48:18;6.13;;;2.00;;
59788;SDS011;47353;51.614;5.530;2022-09-30T12:50:48;4.75;;;1.58;;
59788;SDS011;47353;51.614;5.530;2022-09-30T12:55:42;2.80;;;1.58;;
59788;SDS011;47353;51.614;5.530;2022-09-30T12:58:21;12.18;;;1.70;;
59788;SDS011;47353;51.614;5.530;2022-09-30T13:03:44;5.40;;;1.40;;
59788;SDS011;47353;51.614;5.530;2022-09-30T13:06:16;3.58;;;1.50;;
59788;SDS011;47353;51.614;5.530;2022-09-30T13:08:48;6.47;;;1.45;;
59788;SDS011;47353;51.614;5.530;2022-09-30T13:11:47;7.00;;;2.10;;
59788;SDS011;47353;51.614;5.530;2022-09-30T13:27:37;2.05;;;1.63;;
59788;SDS011;47353;51.614;5.530;2022-09-30T13:32:37;3.83;;;1.65;;
59788;SDS011;47353;51.614;5.530;2022-09-30T13:40:36;3.55;;;1.90;;
59788;SDS011;47353;51.614;5.530;2022-09-30T13:45:43;6.45;;;1.88;;
59788;SDS011;47353;51.614;5.530;2022-09-30T13:48:21;3.55;;;1.60;;
59788;SDS011;47353;51.614;5.530;2022-09-30T13:50:52;4.78;;;1.75;;
59788;SDS011;47353;51.614;5.530;2022-09-30T13:55:57;2.90;;;1.98;;
59788;SDS011;47353;51.614;5.530;2022-09-30T14:04:22;3.55;;;1.70;;
59788;SDS011;47353;51.614;5.530;2022-09-30T14:09:27;4.38;;;1.55;;
59788;SDS011;47353;51.614;5.530;2022-09-30T14:22:42;2.47;;;1.30;;
59788;SDS011;47353;51.614;5.530;2022-09-30T14:25:11;2.85;;;1.40;;
59788;SDS011;47353;51.614;5.530;2022-09-30T14:30:57;2.80;;;1.48;;
59788;SDS011;47353;51.614;5.530;2022-09-30T14:33:33;2.22;;;1.40;;
59788;SDS011;47353;51.614;5.530;2022-09-30T14:36:01;6.00;;;1.50;;
59788;SDS011;47353;51.614;5.530;2022-09-30T14:38:30;3.72;;;1.60;;
59788;SDS011;47353;51.614;5.530;2022-09-30T14:40:59;2.20;;;1.48;;
59788;SDS011;47353;51.614;5.530;2022-09-30T14:43:32;4.85;;;1.80;;
59788;SDS011;47353;51.614;5.530;2022-09-30T14:46:05;2.70;;;1.90;;
59788;SDS011;47353;51.614;5.530;2022-09-30T14:48:37;5.70;;;2.60;;
59788;SDS011;47353;51.614;5.530;2022-09-30T14:51:09;2.40;;;1.70;;
59788;SDS011;47353;51.614;5.530;2022-09-30T14:53:39;2.97;;;1.90;;
59788;SDS011;47353;51.614;5.530;2022-09-30T14:56:25;4.47;;;2.00;;
59788;SDS011;47353;51.614;5.530;2022-09-30T14:58:55;5.28;;;2.00;;
59788;SDS011;47353;51.614;5.530;2022-09-30T15:01:23;3.72;;;2.05;;
59788;SDS011;47353;51.614;5.530;2022-09-30T15:06:23;2.70;;;2.00;;
59788;SDS011;47353;51.614;5.530;2022-09-30T15:08:58;2.08;;;1.80;;
59788;SDS011;47353;51.614;5.530;2022-09-30T15:11:26;3.70;;;1.77;;
59788;SDS011;47353;51.614;5.530;2022-09-30T15:13:57;7.63;;;2.10;;
59788;SDS011;47353;51.614;5.530;2022-09-30T15:16:28;8.23;;;1.98;;
59788;SDS011;47353;51.614;5.530;2022-09-30T15:18:54;3.50;;;1.45;;
59788;SDS011;47353;51.614;5.530;2022-09-30T15:21:21;4.00;;;1.52;;
59788;SDS011;47353;51.614;5.530;2022-09-30T15:23:49;3.30;;;1.60;;
59788;SDS011;47353;51.614;5.530;2022-09-30T15:26:17;4.63;;;1.65;;
59788;SDS011;47353;51.614;5.530;2022-09-30T15:28:45;7.55;;;1.92;;
59788;SDS011;47353;51.614;5.530;2022-09-30T15:31:25;4.03;;;2.10;;
59788;SDS011;47353;51.614;5.530;2022-09-30T15:37:02;1.98;;;1.23;;
59788;SDS011;47353;51.614;5.530;2022-09-30T15:39:31;3.47;;;1.50;;
59788;SDS011;47353;51.614;5.530;2022-09-30T15:42:35;3.95;;;1.80;;
59788;SDS011;47353;51.614;5.530;2022-09-30T15:45:27;5.30;;;3.35;;
59788;SDS011;47353;51.614;5.530;2022-09-30T15:47:59;4.82;;;1.38;;
59788;SDS011;47353;51.614;5.530;2022-09-30T15:53:20;3.40;;;1.85;;
59788;SDS011;47353;51.614;5.530;2022-09-30T15:55:50;4.90;;;1.90;;
59788;SDS011;47353;51.614;5.530;2022-09-30T16:01:07;3.80;;;1.95;;
59788;SDS011;47353;51.614;5.530;2022-09-30T16:03:45;4.05;;;1.90;;
59788;SDS011;47353;51.614;5.530;2022-09-30T16:06:15;4.32;;;1.95;;
59788;SDS011;47353;51.614;5.530;2022-09-30T16:11:41;3.65;;;2.33;;
59788;SDS011;47353;51.614;5.530;2022-09-30T16:14:18;4.82;;;2.20;;
59788;SDS011;47353;51.614;5.530;2022-09-30T16:16:50;4.90;;;2.40;;
59788;SDS011;47353;51.614;5.530;2022-09-30T16:19:19;4.38;;;2.35;;
59788;SDS011;47353;51.614;5.530;2022-09-30T16:21:48;5.18;;;2.20;;
59788;SDS011;47353;51.614;5.530;2022-09-30T16:24:57;4.65;;;2.30;;
59788;SDS011;47353;51.614;5.530;2022-09-30T16:27:24;5.68;;;2.38;;
59788;SDS011;47353;51.614;5.530;2022-09-30T16:29:53;4.03;;;2.40;;
59788;SDS011;47353;51.614;5.530;2022-09-30T16:32:19;4.28;;;2.50;;
59788;SDS011;47353;51.614;5.530;2022-09-30T16:34:45;5.55;;;2.58;;
59788;SDS011;47353;51.614;5.530;2022-09-30T16:37:11;5.53;;;2.60;;
59788;SDS011;47353;51.614;5.530;2022-09-30T16:39:38;4.75;;;2.50;;
59788;SDS011;47353;51.614;5.530;2022-09-30T16:42:04;4.60;;;3.05;;
59788;SDS011;47353;51.614;5.530;2022-09-30T16:44:30;5.00;;;3.55;;
59788;SDS011;47353;51.614;5.530;2022-09-30T16:46:59;4.82;;;3.08;;
59788;SDS011;47353;51.614;5.530;2022-09-30T16:49:25;4.43;;;3.03;;
59788;SDS011;47353;51.614;5.530;2022-09-30T16:51:51;6.97;;;3.20;;
59788;SDS011;47353;51.614;5.530;2022-09-30T16:54:16;5.07;;;2.97;;
59788;SDS011;47353;51.614;5.530;2022-09-30T16:56:42;6.10;;;3.03;;
59788;SDS011;47353;51.614;5.530;2022-09-30T16:59:15;5.38;;;3.45;;
59788;SDS011;47353;51.614;5.530;2022-09-30T17:04:07;4.30;;;2.90;;
59788;SDS011;47353;51.614;5.530;2022-09-30T17:06:33;5.38;;;3.10;;
59788;SDS011;47353;51.614;5.530;2022-09-30T17:09:00;5.80;;;3.20;;
59788;SDS011;47353;51.614;5.530;2022-09-30T17:11:27;6.45;;;3.50;;
59788;SDS011;47353;51.614;5.530;2022-09-30T17:13:57;4.57;;;3.35;;
59788;SDS011;47353;51.614;5.530;2022-09-30T17:16:24;4.40;;;3.40;;
59788;SDS011;47353;51.614;5.530;2022-09-30T17:18:51;7.78;;;3.83;;
59788;SDS011;47353;51.614;5.530;2022-09-30T17:21:17;6.32;;;4.03;;
59788;SDS011;47353;51.614;5.530;2022-09-30T17:23:43;7.35;;;4.90;;
59788;SDS011;47353;51.614;5.530;2022-09-30T17:26:09;7.13;;;4.70;;
59788;SDS011;47353;51.614;5.530;2022-09-30T17:28:35;5.47;;;4.45;;
59788;SDS011;47353;51.614;5.530;2022-09-30T17:31:01;7.70;;;4.47;;
59788;SDS011;47353;51.614;5.530;2022-09-30T17:33:33;6.82;;;4.47;;
59788;SDS011;47353;51.614;5.530;2022-09-30T17:36:05;5.13;;;4.10;;
59788;SDS011;47353;51.614;5.530;2022-09-30T17:38:32;6.05;;;3.72;;
59788;SDS011;47353;51.614;5.530;2022-09-30T17:40:58;4.32;;;3.90;;
59788;SDS011;47353;51.614;5.530;2022-09-30T17:43:43;4.85;;;3.70;;
59788;SDS011;47353;51.614;5.530;2022-09-30T17:46:09;5.88;;;3.80;;
59788;SDS011;47353;51.614;5.530;2022-09-30T17:48:36;5.50;;;3.80;;
59788;SDS011;47353;51.614;5.530;2022-09-30T17:51:03;4.47;;;3.55;;
59788;SDS011;47353;51.614;5.530;2022-09-30T17:53:30;6.28;;;3.95;;
59788;SDS011;47353;51.614;5.530;2022-09-30T17:56:06;4.47;;;3.50;;
59788;SDS011;47353;51.614;5.530;2022-09-30T17:58:40;4.13;;;3.60;;
59788;SDS011;47353;51.614;5.530;2022-09-30T18:01:07;4.40;;;3.92;;
59788;SDS011;47353;51.614;5.530;2022-09-30T18:03:34;5.15;;;3.55;;
59788;SDS011;47353;51.614;5.530;2022-09-30T18:06:00;4.70;;;3.55;;
59788;SDS011;47353;51.614;5.530;2022-09-30T18:08:26;4.75;;;3.80;;
59788;SDS011;47353;51.614;5.530;2022-09-30T18:10:52;4.53;;;3.70;;
59788;SDS011;47353;51.614;5.530;2022-09-30T18:13:21;4.72;;;3.65;;
59788;SDS011;47353;51.614;5.530;2022-09-30T18:15:49;4.85;;;3.85;;
59788;SDS011;47353;51.614;5.530;2022-09-30T18:18:15;4.63;;;3.55;;
59788;SDS011;47353;51.614;5.530;2022-09-30T18:20:43;7.78;;;3.92;;
59788;SDS011;47353;51.614;5.530;2022-09-30T18:23:10;4.18;;;3.78;;
59788;SDS011;47353;51.614;5.530;2022-09-30T18:25:36;6.05;;;3.85;;
59788;SDS011;47353;51.614;5.530;2022-09-30T18:28:03;5.85;;;4.13;;
59788;SDS011;47353;51.614;5.530;2022-09-30T18:30:33;5.38;;;3.95;;
59788;SDS011;47353;51.614;5.530;2022-09-30T18:32:59;5.78;;;3.92;;
59788;SDS011;47353;51.614;5.530;2022-09-30T18:35:24;5.38;;;3.97;;
59788;SDS011;47353;51.614;5.530;2022-09-30T18:37:50;6.35;;;4.10;;
59788;SDS011;47353;51.614;5.530;2022-09-30T18:40:21;6.57;;;4.05;;
59788;SDS011;47353;51.614;5.530;2022-09-30T18:42:51;6.78;;;4.15;;
59788;SDS011;47353;51.614;5.530;2022-09-30T18:45:27;5.13;;;4.15;;
59788;SDS011;47353;51.614;5.530;2022-09-30T18:47:56;5.25;;;4.18;;
59788;SDS011;47353;51.614;5.530;2022-09-30T18:50:23;5.45;;;4.10;;
59788;SDS011;47353;51.614;5.530;2022-09-30T18:52:50;6.78;;;4.93;;
59788;SDS011;47353;51.614;5.530;2022-09-30T18:55:16;8.18;;;5.20;;
59788;SDS011;47353;51.614;5.530;2022-09-30T18:57:42;7.20;;;4.30;;
59788;SDS011;47353;51.614;5.530;2022-09-30T19:00:08;7.07;;;4.30;;